sensor_id;sensor_type;location;lat;lon;timestamp;P1;durP1;ratioP1;P2;durP2;ratioP2
53052;SDS011;38934;52.690;6.184;2023-12-28T00:00:32;7.20;;;4.82;;
53052;SDS011;38934;52.690;6.184;2023-12-28T00:02:58;7.50;;;5.05;;
53052;SDS011;38934;52.690;6.184;2023-12-28T00:05:24;6.85;;;4.07;;
53052;SDS011;38934;52.690;6.184;2023-12-28T00:07:50;6.72;;;4.47;;
53052;SDS011;38934;52.690;6.184;2023-12-28T00:10:23;6.57;;;4.90;;
53052;SDS011;38934;52.690;6.184;2023-12-28T00:12:49;5.93;;;4.20;;
53052;SDS011;38934;52.690;6.184;2023-12-28T00:15:15;6.97;;;4.65;;
53052;SDS011;38934;52.690;6.184;2023-12-28T00:17:41;6.57;;;4.30;;
53052;SDS011;38934;52.690;6.184;2023-12-28T00:20:07;6.15;;;4.40;;
53052;SDS011;38934;52.690;6.184;2023-12-28T00:22:33;8.23;;;5.35;;
53052;SDS011;38934;52.690;6.184;2023-12-28T00:25:02;6.00;;;4.50;;
53052;SDS011;38934;52.690;6.184;2023-12-28T00:27:28;6.78;;;4.63;;
53052;SDS011;38934;52.690;6.184;2023-12-28T00:29:54;6.72;;;4.57;;
53052;SDS011;38934;52.690;6.184;2023-12-28T00:32:20;8.02;;;4.78;;
53052;SDS011;38934;52.690;6.184;2023-12-28T00:34:46;9.95;;;4.97;;
53052;SDS011;38934;52.690;6.184;2023-12-28T00:37:12;9.45;;;4.60;;
53052;SDS011;38934;52.690;6.184;2023-12-28T00:39:38;9.75;;;5.00;;
53052;SDS011;38934;52.690;6.184;2023-12-28T00:42:05;9.50;;;5.05;;
53052;SDS011;38934;52.690;6.184;2023-12-28T00:44:31;9.40;;;4.93;;
53052;SDS011;38934;52.690;6.184;2023-12-28T00:46:57;6.60;;;4.50;;
53052;SDS011;38934;52.690;6.184;2023-12-28T00:49:23;9.32;;;5.40;;
53052;SDS011;38934;52.690;6.184;2023-12-28T00:51:49;8.60;;;4.95;;
53052;SDS011;38934;52.690;6.184;2023-12-28T00:54:15;7.20;;;4.97;;
53052;SDS011;38934;52.690;6.184;2023-12-28T00:56:41;7.93;;;5.30;;
53052;SDS011;38934;52.690;6.184;2023-12-28T00:59:07;10.05;;;5.05;;
53052;SDS011;38934;52.690;6.184;2023-12-28T01:01:33;8.40;;;4.68;;
53052;SDS011;38934;52.690;6.184;2023-12-28T01:03:59;9.15;;;5.05;;
53052;SDS011;38934;52.690;6.184;2023-12-28T01:06:25;7.78;;;5.00;;
53052;SDS011;38934;52.690;6.184;2023-12-28T01:08:53;9.20;;;5.80;;
53052;SDS011;38934;52.690;6.184;2023-12-28T01:11:19;10.80;;;4.93;;
53052;SDS011;38934;52.690;6.184;2023-12-28T01:13:45;10.45;;;4.90;;
53052;SDS011;38934;52.690;6.184;2023-12-28T01:16:12;10.23;;;5.20;;
53052;SDS011;38934;52.690;6.184;2023-12-28T01:18:38;9.60;;;5.20;;
53052;SDS011;38934;52.690;6.184;2023-12-28T01:21:04;9.48;;;5.30;;
53052;SDS011;38934;52.690;6.184;2023-12-28T01:23:31;6.43;;;4.90;;
53052;SDS011;38934;52.690;6.184;2023-12-28T01:25:57;7.57;;;4.82;;
53052;SDS011;38934;52.690;6.184;2023-12-28T01:28:23;8.68;;;4.78;;
53052;SDS011;38934;52.690;6.184;2023-12-28T01:30:49;12.05;;;5.40;;
53052;SDS011;38934;52.690;6.184;2023-12-28T01:33:15;8.48;;;4.97;;
53052;SDS011;38934;52.690;6.184;2023-12-28T01:35:41;13.35;;;5.38;;
53052;SDS011;38934;52.690;6.184;2023-12-28T01:38:07;10.30;;;5.00;;
53052;SDS011;38934;52.690;6.184;2023-12-28T01:40:33;9.75;;;4.50;;
53052;SDS011;38934;52.690;6.184;2023-12-28T01:43:00;10.80;;;4.93;;
53052;SDS011;38934;52.690;6.184;2023-12-28T01:45:26;8.90;;;4.53;;
53052;SDS011;38934;52.690;6.184;2023-12-28T01:47:55;11.50;;;4.95;;
53052;SDS011;38934;52.690;6.184;2023-12-28T01:50:23;8.10;;;4.82;;
53052;SDS011;38934;52.690;6.184;2023-12-28T01:52:49;12.68;;;5.13;;
53052;SDS011;38934;52.690;6.184;2023-12-28T01:55:16;12.00;;;4.88;;
53052;SDS011;38934;52.690;6.184;2023-12-28T01:57:42;10.43;;;5.07;;
53052;SDS011;38934;52.690;6.184;2023-12-28T02:00:08;13.90;;;4.80;;
53052;SDS011;38934;52.690;6.184;2023-12-28T02:02:34;9.02;;;5.20;;
53052;SDS011;38934;52.690;6.184;2023-12-28T02:05:01;13.30;;;5.43;;
53052;SDS011;38934;52.690;6.184;2023-12-28T02:07:27;11.30;;;5.13;;
53052;SDS011;38934;52.690;6.184;2023-12-28T02:09:55;10.43;;;4.72;;
53052;SDS011;38934;52.690;6.184;2023-12-28T02:12:21;10.43;;;4.60;;
53052;SDS011;38934;52.690;6.184;2023-12-28T02:14:47;11.32;;;4.68;;
53052;SDS011;38934;52.690;6.184;2023-12-28T02:17:16;11.55;;;4.50;;
53052;SDS011;38934;52.690;6.184;2023-12-28T02:19:49;8.85;;;4.47;;
53052;SDS011;38934;52.690;6.184;2023-12-28T02:22:16;11.00;;;4.63;;
53052;SDS011;38934;52.690;6.184;2023-12-28T02:27:25;12.25;;;4.10;;
53052;SDS011;38934;52.690;6.184;2023-12-28T02:29:51;13.65;;;4.28;;
53052;SDS011;38934;52.690;6.184;2023-12-28T02:32:17;12.75;;;4.13;;
53052;SDS011;38934;52.690;6.184;2023-12-28T02:34:46;8.88;;;3.90;;
53052;SDS011;38934;52.690;6.184;2023-12-28T02:37:13;10.27;;;4.70;;
53052;SDS011;38934;52.690;6.184;2023-12-28T02:39:41;14.32;;;4.25;;
53052;SDS011;38934;52.690;6.184;2023-12-28T02:42:08;8.40;;;3.95;;
53052;SDS011;38934;52.690;6.184;2023-12-28T02:44:34;9.07;;;3.88;;
53052;SDS011;38934;52.690;6.184;2023-12-28T02:47:00;11.63;;;4.22;;
53052;SDS011;38934;52.690;6.184;2023-12-28T02:49:27;9.75;;;4.05;;
53052;SDS011;38934;52.690;6.184;2023-12-28T02:51:53;10.65;;;3.83;;
53052;SDS011;38934;52.690;6.184;2023-12-28T02:54:18;10.13;;;4.40;;
53052;SDS011;38934;52.690;6.184;2023-12-28T02:56:45;11.18;;;3.72;;
53052;SDS011;38934;52.690;6.184;2023-12-28T02:59:10;6.88;;;3.47;;
53052;SDS011;38934;52.690;6.184;2023-12-28T03:01:37;9.20;;;3.40;;
53052;SDS011;38934;52.690;6.184;2023-12-28T03:04:03;7.03;;;3.20;;
53052;SDS011;38934;52.690;6.184;2023-12-28T03:06:29;6.50;;;2.95;;
53052;SDS011;38934;52.690;6.184;2023-12-28T03:08:54;11.82;;;3.40;;
53052;SDS011;38934;52.690;6.184;2023-12-28T03:11:21;11.18;;;3.50;;
53052;SDS011;38934;52.690;6.184;2023-12-28T03:13:46;6.80;;;3.00;;
53052;SDS011;38934;52.690;6.184;2023-12-28T03:16:13;9.30;;;3.60;;
53052;SDS011;38934;52.690;6.184;2023-12-28T03:18:39;8.55;;;3.30;;
53052;SDS011;38934;52.690;6.184;2023-12-28T03:21:05;8.82;;;3.10;;
53052;SDS011;38934;52.690;6.184;2023-12-28T03:23:31;8.93;;;3.47;;
53052;SDS011;38934;52.690;6.184;2023-12-28T03:25:57;9.00;;;3.30;;
53052;SDS011;38934;52.690;6.184;2023-12-28T03:28:23;9.20;;;3.40;;
53052;SDS011;38934;52.690;6.184;2023-12-28T03:30:49;7.57;;;3.03;;
53052;SDS011;38934;52.690;6.184;2023-12-28T03:33:16;9.23;;;3.28;;
53052;SDS011;38934;52.690;6.184;2023-12-28T03:35:42;13.48;;;3.10;;
53052;SDS011;38934;52.690;6.184;2023-12-28T03:38:08;8.63;;;3.35;;
53052;SDS011;38934;52.690;6.184;2023-12-28T03:40:34;8.93;;;3.30;;
53052;SDS011;38934;52.690;6.184;2023-12-28T03:43:00;11.52;;;3.25;;
53052;SDS011;38934;52.690;6.184;2023-12-28T03:45:26;13.80;;;3.55;;
53052;SDS011;38934;52.690;6.184;2023-12-28T03:47:52;9.82;;;3.25;;
53052;SDS011;38934;52.690;6.184;2023-12-28T03:50:18;7.68;;;3.00;;
53052;SDS011;38934;52.690;6.184;2023-12-28T03:52:44;11.40;;;3.10;;
53052;SDS011;38934;52.690;6.184;2023-12-28T03:55:10;7.93;;;3.00;;
53052;SDS011;38934;52.690;6.184;2023-12-28T03:57:36;13.65;;;3.40;;
53052;SDS011;38934;52.690;6.184;2023-12-28T04:00:02;8.57;;;3.50;;
53052;SDS011;38934;52.690;6.184;2023-12-28T04:02:28;7.57;;;3.05;;
53052;SDS011;38934;52.690;6.184;2023-12-28T04:04:56;8.40;;;3.10;;
53052;SDS011;38934;52.690;6.184;2023-12-28T04:07:23;12.35;;;2.95;;
53052;SDS011;38934;52.690;6.184;2023-12-28T04:09:49;12.57;;;3.50;;
53052;SDS011;38934;52.690;6.184;2023-12-28T04:12:15;9.00;;;3.33;;
53052;SDS011;38934;52.690;6.184;2023-12-28T04:14:41;10.80;;;3.10;;
53052;SDS011;38934;52.690;6.184;2023-12-28T04:17:07;14.18;;;3.08;;
53052;SDS011;38934;52.690;6.184;2023-12-28T04:19:33;15.48;;;3.22;;
53052;SDS011;38934;52.690;6.184;2023-12-28T04:21:59;12.10;;;3.47;;
53052;SDS011;38934;52.690;6.184;2023-12-28T04:24:25;12.63;;;3.97;;
53052;SDS011;38934;52.690;6.184;2023-12-28T04:26:51;12.55;;;3.55;;
53052;SDS011;38934;52.690;6.184;2023-12-28T04:29:17;8.48;;;3.00;;
53052;SDS011;38934;52.690;6.184;2023-12-28T04:31:43;14.18;;;3.28;;
53052;SDS011;38934;52.690;6.184;2023-12-28T04:34:10;14.40;;;3.25;;
53052;SDS011;38934;52.690;6.184;2023-12-28T04:36:40;11.40;;;3.00;;
53052;SDS011;38934;52.690;6.184;2023-12-28T04:39:07;14.68;;;2.92;;
53052;SDS011;38934;52.690;6.184;2023-12-28T04:41:33;11.40;;;3.35;;
53052;SDS011;38934;52.690;6.184;2023-12-28T04:43:59;8.73;;;3.08;;
53052;SDS011;38934;52.690;6.184;2023-12-28T04:46:25;13.93;;;3.20;;
53052;SDS011;38934;52.690;6.184;2023-12-28T04:48:51;9.82;;;3.53;;
53052;SDS011;38934;52.690;6.184;2023-12-28T04:51:17;13.20;;;2.92;;
53052;SDS011;38934;52.690;6.184;2023-12-28T04:53:43;11.88;;;3.20;;
53052;SDS011;38934;52.690;6.184;2023-12-28T04:56:09;13.27;;;3.42;;
53052;SDS011;38934;52.690;6.184;2023-12-28T04:58:35;13.90;;;4.07;;
53052;SDS011;38934;52.690;6.184;2023-12-28T05:01:01;14.13;;;3.03;;
53052;SDS011;38934;52.690;6.184;2023-12-28T05:03:27;11.27;;;3.47;;
53052;SDS011;38934;52.690;6.184;2023-12-28T05:05:53;11.68;;;3.35;;
53052;SDS011;38934;52.690;6.184;2023-12-28T05:08:19;13.05;;;3.45;;
53052;SDS011;38934;52.690;6.184;2023-12-28T05:10:45;8.43;;;3.22;;
53052;SDS011;38934;52.690;6.184;2023-12-28T05:13:11;12.48;;;3.42;;
53052;SDS011;38934;52.690;6.184;2023-12-28T05:15:37;11.30;;;2.95;;
53052;SDS011;38934;52.690;6.184;2023-12-28T05:18:03;11.25;;;2.90;;
53052;SDS011;38934;52.690;6.184;2023-12-28T05:20:31;14.40;;;2.90;;
53052;SDS011;38934;52.690;6.184;2023-12-28T05:22:57;10.77;;;3.42;;
53052;SDS011;38934;52.690;6.184;2023-12-28T05:25:23;12.05;;;3.55;;
53052;SDS011;38934;52.690;6.184;2023-12-28T05:27:49;11.32;;;3.08;;
53052;SDS011;38934;52.690;6.184;2023-12-28T05:30:15;13.63;;;3.25;;
53052;SDS011;38934;52.690;6.184;2023-12-28T05:32:41;10.20;;;2.92;;
53052;SDS011;38934;52.690;6.184;2023-12-28T05:35:07;15.57;;;3.53;;
53052;SDS011;38934;52.690;6.184;2023-12-28T05:37:33;10.23;;;2.67;;
53052;SDS011;38934;52.690;6.184;2023-12-28T05:40:00;10.73;;;2.83;;
53052;SDS011;38934;52.690;6.184;2023-12-28T05:42:26;12.38;;;2.92;;
53052;SDS011;38934;52.690;6.184;2023-12-28T05:44:52;13.15;;;3.40;;
53052;SDS011;38934;52.690;6.184;2023-12-28T05:47:18;10.50;;;2.80;;
53052;SDS011;38934;52.690;6.184;2023-12-28T05:49:44;14.57;;;3.28;;
53052;SDS011;38934;52.690;6.184;2023-12-28T05:52:10;10.63;;;2.80;;
53052;SDS011;38934;52.690;6.184;2023-12-28T05:54:36;10.30;;;3.42;;
53052;SDS011;38934;52.690;6.184;2023-12-28T05:57:02;13.15;;;2.95;;
53052;SDS011;38934;52.690;6.184;2023-12-28T05:59:28;10.07;;;2.83;;
53052;SDS011;38934;52.690;6.184;2023-12-28T06:01:54;14.45;;;3.05;;
53052;SDS011;38934;52.690;6.184;2023-12-28T06:04:20;13.65;;;2.60;;
53052;SDS011;38934;52.690;6.184;2023-12-28T06:06:46;11.45;;;2.97;;
53052;SDS011;38934;52.690;6.184;2023-12-28T06:09:12;12.75;;;2.95;;
53052;SDS011;38934;52.690;6.184;2023-12-28T06:11:38;12.68;;;2.70;;
53052;SDS011;38934;52.690;6.184;2023-12-28T06:14:04;11.07;;;2.92;;
53052;SDS011;38934;52.690;6.184;2023-12-28T06:16:30;11.75;;;2.80;;
53052;SDS011;38934;52.690;6.184;2023-12-28T06:18:58;12.20;;;3.03;;
53052;SDS011;38934;52.690;6.184;2023-12-28T06:21:25;9.75;;;3.15;;
53052;SDS011;38934;52.690;6.184;2023-12-28T06:23:51;12.02;;;3.17;;
53052;SDS011;38934;52.690;6.184;2023-12-28T06:26:17;13.68;;;3.30;;
53052;SDS011;38934;52.690;6.184;2023-12-28T06:28:43;9.77;;;4.03;;
53052;SDS011;38934;52.690;6.184;2023-12-28T06:31:09;15.02;;;3.35;;
53052;SDS011;38934;52.690;6.184;2023-12-28T06:33:35;11.63;;;3.40;;
53052;SDS011;38934;52.690;6.184;2023-12-28T06:36:04;13.23;;;3.15;;
53052;SDS011;38934;52.690;6.184;2023-12-28T06:38:30;10.50;;;3.05;;
53052;SDS011;38934;52.690;6.184;2023-12-28T06:40:58;10.32;;;2.72;;
53052;SDS011;38934;52.690;6.184;2023-12-28T06:43:24;15.50;;;3.47;;
53052;SDS011;38934;52.690;6.184;2023-12-28T06:45:50;12.70;;;2.83;;
53052;SDS011;38934;52.690;6.184;2023-12-28T06:48:17;16.90;;;2.75;;
53052;SDS011;38934;52.690;6.184;2023-12-28T06:50:43;16.90;;;3.30;;
53052;SDS011;38934;52.690;6.184;2023-12-28T06:53:09;12.82;;;2.58;;
53052;SDS011;38934;52.690;6.184;2023-12-28T06:55:35;12.52;;;3.22;;
53052;SDS011;38934;52.690;6.184;2023-12-28T06:58:01;12.50;;;3.47;;
53052;SDS011;38934;52.690;6.184;2023-12-28T07:00:28;16.13;;;3.40;;
53052;SDS011;38934;52.690;6.184;2023-12-28T07:02:54;16.05;;;3.72;;
53052;SDS011;38934;52.690;6.184;2023-12-28T07:05:20;14.25;;;2.92;;
53052;SDS011;38934;52.690;6.184;2023-12-28T07:07:46;17.90;;;3.42;;
53052;SDS011;38934;52.690;6.184;2023-12-28T07:10:12;17.20;;;3.90;;
53052;SDS011;38934;52.690;6.184;2023-12-28T07:12:38;18.92;;;3.28;;
53052;SDS011;38934;52.690;6.184;2023-12-28T07:15:04;14.73;;;2.92;;
53052;SDS011;38934;52.690;6.184;2023-12-28T07:17:30;16.58;;;3.35;;
53052;SDS011;38934;52.690;6.184;2023-12-28T07:19:56;16.15;;;3.88;;
53052;SDS011;38934;52.690;6.184;2023-12-28T07:22:22;12.93;;;3.05;;
53052;SDS011;38934;52.690;6.184;2023-12-28T07:24:48;13.45;;;3.60;;
53052;SDS011;38934;52.690;6.184;2023-12-28T07:27:14;15.70;;;3.00;;
53052;SDS011;38934;52.690;6.184;2023-12-28T07:29:40;11.88;;;3.25;;
53052;SDS011;38934;52.690;6.184;2023-12-28T07:32:06;14.70;;;3.40;;
53052;SDS011;38934;52.690;6.184;2023-12-28T07:34:34;17.95;;;3.85;;
53052;SDS011;38934;52.690;6.184;2023-12-28T07:37:00;14.70;;;3.53;;
53052;SDS011;38934;52.690;6.184;2023-12-28T07:39:26;18.95;;;3.85;;
53052;SDS011;38934;52.690;6.184;2023-12-28T07:41:52;20.13;;;3.38;;
53052;SDS011;38934;52.690;6.184;2023-12-28T07:44:19;24.90;;;3.90;;
53052;SDS011;38934;52.690;6.184;2023-12-28T07:46:45;18.92;;;3.97;;
53052;SDS011;38934;52.690;6.184;2023-12-28T07:49:11;12.65;;;3.30;;
53052;SDS011;38934;52.690;6.184;2023-12-28T07:51:37;21.23;;;4.07;;
53052;SDS011;38934;52.690;6.184;2023-12-28T07:54:03;20.45;;;4.45;;
53052;SDS011;38934;52.690;6.184;2023-12-28T07:56:29;18.17;;;3.38;;
53052;SDS011;38934;52.690;6.184;2023-12-28T07:58:55;15.23;;;3.50;;
53052;SDS011;38934;52.690;6.184;2023-12-28T08:01:21;19.67;;;4.10;;
53052;SDS011;38934;52.690;6.184;2023-12-28T08:03:47;16.63;;;3.55;;
53052;SDS011;38934;52.690;6.184;2023-12-28T08:06:13;17.55;;;3.22;;
53052;SDS011;38934;52.690;6.184;2023-12-28T08:08:39;18.77;;;3.63;;
53052;SDS011;38934;52.690;6.184;2023-12-28T08:11:06;17.65;;;3.72;;
53052;SDS011;38934;52.690;6.184;2023-12-28T08:13:32;15.80;;;3.58;;
53052;SDS011;38934;52.690;6.184;2023-12-28T08:15:58;18.05;;;3.72;;
53052;SDS011;38934;52.690;6.184;2023-12-28T08:18:24;23.58;;;3.85;;
53052;SDS011;38934;52.690;6.184;2023-12-28T08:20:50;16.95;;;3.55;;
53052;SDS011;38934;52.690;6.184;2023-12-28T08:23:16;18.08;;;3.67;;
53052;SDS011;38934;52.690;6.184;2023-12-28T08:25:42;18.52;;;3.95;;
53052;SDS011;38934;52.690;6.184;2023-12-28T08:28:08;14.75;;;4.05;;
53052;SDS011;38934;52.690;6.184;2023-12-28T08:30:34;21.08;;;3.63;;
53052;SDS011;38934;52.690;6.184;2023-12-28T08:33:00;17.17;;;3.88;;
53052;SDS011;38934;52.690;6.184;2023-12-28T08:35:26;23.30;;;4.10;;
53052;SDS011;38934;52.690;6.184;2023-12-28T08:37:52;18.20;;;3.60;;
53052;SDS011;38934;52.690;6.184;2023-12-28T08:40:18;21.88;;;3.70;;
53052;SDS011;38934;52.690;6.184;2023-12-28T08:42:44;15.05;;;3.50;;
53052;SDS011;38934;52.690;6.184;2023-12-28T08:45:10;18.45;;;4.13;;
53052;SDS011;38934;52.690;6.184;2023-12-28T08:47:36;19.85;;;3.92;;
53052;SDS011;38934;52.690;6.184;2023-12-28T08:50:02;19.13;;;3.50;;
53052;SDS011;38934;52.690;6.184;2023-12-28T08:52:28;16.17;;;3.55;;
53052;SDS011;38934;52.690;6.184;2023-12-28T08:54:55;21.17;;;3.60;;
53052;SDS011;38934;52.690;6.184;2023-12-28T08:57:21;20.35;;;3.60;;
53052;SDS011;38934;52.690;6.184;2023-12-28T08:59:47;19.00;;;4.35;;
53052;SDS011;38934;52.690;6.184;2023-12-28T09:02:13;13.68;;;3.10;;
53052;SDS011;38934;52.690;6.184;2023-12-28T09:04:39;23.40;;;3.92;;
53052;SDS011;38934;52.690;6.184;2023-12-28T09:07:05;17.30;;;4.03;;
53052;SDS011;38934;52.690;6.184;2023-12-28T09:09:31;15.23;;;3.70;;
53052;SDS011;38934;52.690;6.184;2023-12-28T09:11:57;16.73;;;3.30;;
53052;SDS011;38934;52.690;6.184;2023-12-28T09:14:23;18.77;;;3.92;;
53052;SDS011;38934;52.690;6.184;2023-12-28T09:16:49;16.20;;;3.90;;
53052;SDS011;38934;52.690;6.184;2023-12-28T09:19:15;16.17;;;3.70;;
53052;SDS011;38934;52.690;6.184;2023-12-28T09:21:41;15.65;;;3.25;;
53052;SDS011;38934;52.690;6.184;2023-12-28T09:24:07;16.00;;;3.60;;
53052;SDS011;38934;52.690;6.184;2023-12-28T09:26:33;14.10;;;3.63;;
53052;SDS011;38934;52.690;6.184;2023-12-28T09:28:59;17.85;;;3.40;;
53052;SDS011;38934;52.690;6.184;2023-12-28T09:31:26;16.95;;;3.60;;
53052;SDS011;38934;52.690;6.184;2023-12-28T09:33:52;17.98;;;3.08;;
53052;SDS011;38934;52.690;6.184;2023-12-28T09:36:18;15.85;;;3.25;;
53052;SDS011;38934;52.690;6.184;2023-12-28T09:38:44;22.48;;;4.10;;
53052;SDS011;38934;52.690;6.184;2023-12-28T09:41:14;19.23;;;3.97;;
53052;SDS011;38934;52.690;6.184;2023-12-28T09:43:53;17.10;;;3.83;;
53052;SDS011;38934;52.690;6.184;2023-12-28T09:46:20;18.17;;;4.10;;
53052;SDS011;38934;52.690;6.184;2023-12-28T09:48:46;21.80;;;4.18;;
53052;SDS011;38934;52.690;6.184;2023-12-28T09:51:12;15.15;;;3.55;;
53052;SDS011;38934;52.690;6.184;2023-12-28T09:53:38;21.33;;;3.95;;
53052;SDS011;38934;52.690;6.184;2023-12-28T09:56:04;22.40;;;3.70;;
53052;SDS011;38934;52.690;6.184;2023-12-28T09:58:30;15.50;;;3.60;;
53052;SDS011;38934;52.690;6.184;2023-12-28T10:00:59;16.13;;;3.85;;
53052;SDS011;38934;52.690;6.184;2023-12-28T10:03:26;13.15;;;3.33;;
53052;SDS011;38934;52.690;6.184;2023-12-28T10:05:52;21.38;;;3.72;;
53052;SDS011;38934;52.690;6.184;2023-12-28T10:08:18;16.60;;;4.05;;
53052;SDS011;38934;52.690;6.184;2023-12-28T10:10:44;16.83;;;3.58;;
53052;SDS011;38934;52.690;6.184;2023-12-28T10:13:17;15.55;;;3.70;;
53052;SDS011;38934;52.690;6.184;2023-12-28T10:15:43;21.85;;;3.72;;
53052;SDS011;38934;52.690;6.184;2023-12-28T10:18:09;20.35;;;3.60;;
53052;SDS011;38934;52.690;6.184;2023-12-28T10:20:36;13.70;;;3.95;;
53052;SDS011;38934;52.690;6.184;2023-12-28T10:23:02;19.83;;;4.18;;
53052;SDS011;38934;52.690;6.184;2023-12-28T10:25:29;15.25;;;3.53;;
53052;SDS011;38934;52.690;6.184;2023-12-28T10:27:56;14.38;;;3.22;;
53052;SDS011;38934;52.690;6.184;2023-12-28T10:30:22;16.67;;;3.97;;
53052;SDS011;38934;52.690;6.184;2023-12-28T10:32:48;15.60;;;3.85;;
53052;SDS011;38934;52.690;6.184;2023-12-28T10:35:15;14.95;;;4.00;;
53052;SDS011;38934;52.690;6.184;2023-12-28T10:37:41;17.65;;;3.60;;
53052;SDS011;38934;52.690;6.184;2023-12-28T10:40:07;15.00;;;3.25;;
53052;SDS011;38934;52.690;6.184;2023-12-28T10:42:42;20.10;;;3.83;;
53052;SDS011;38934;52.690;6.184;2023-12-28T10:45:11;16.60;;;3.78;;
53052;SDS011;38934;52.690;6.184;2023-12-28T10:47:42;15.73;;;3.47;;
53052;SDS011;38934;52.690;6.184;2023-12-28T10:50:08;12.57;;;3.70;;
53052;SDS011;38934;52.690;6.184;2023-12-28T10:52:36;17.30;;;3.80;;
53052;SDS011;38934;52.690;6.184;2023-12-28T10:55:27;17.92;;;4.05;;
53052;SDS011;38934;52.690;6.184;2023-12-28T10:57:59;17.42;;;3.95;;
53052;SDS011;38934;52.690;6.184;2023-12-28T11:00:30;15.70;;;3.78;;
53052;SDS011;38934;52.690;6.184;2023-12-28T11:02:58;22.17;;;4.55;;
53052;SDS011;38934;52.690;6.184;2023-12-28T11:05:24;18.40;;;4.18;;
53052;SDS011;38934;52.690;6.184;2023-12-28T11:07:52;16.83;;;3.78;;
53052;SDS011;38934;52.690;6.184;2023-12-28T11:10:22;17.60;;;3.72;;
53052;SDS011;38934;52.690;6.184;2023-12-28T11:12:50;21.88;;;4.07;;
53052;SDS011;38934;52.690;6.184;2023-12-28T11:15:18;19.63;;;3.33;;
53052;SDS011;38934;52.690;6.184;2023-12-28T11:17:44;18.02;;;3.78;;
53052;SDS011;38934;52.690;6.184;2023-12-28T11:20:10;17.77;;;3.55;;
53052;SDS011;38934;52.690;6.184;2023-12-28T11:22:37;20.05;;;3.03;;
53052;SDS011;38934;52.690;6.184;2023-12-28T11:25:04;13.98;;;3.47;;
53052;SDS011;38934;52.690;6.184;2023-12-28T11:27:36;22.35;;;3.75;;
53052;SDS011;38934;52.690;6.184;2023-12-28T11:30:05;15.93;;;3.28;;
53052;SDS011;38934;52.690;6.184;2023-12-28T11:32:32;13.88;;;3.40;;
53052;SDS011;38934;52.690;6.184;2023-12-28T11:34:59;17.13;;;3.38;;
53052;SDS011;38934;52.690;6.184;2023-12-28T11:37:26;16.20;;;3.67;;
53052;SDS011;38934;52.690;6.184;2023-12-28T11:39:52;16.45;;;3.78;;
53052;SDS011;38934;52.690;6.184;2023-12-28T11:42:20;17.80;;;3.72;;
53052;SDS011;38934;52.690;6.184;2023-12-28T11:44:46;21.20;;;4.40;;
53052;SDS011;38934;52.690;6.184;2023-12-28T11:47:13;14.52;;;3.15;;
53052;SDS011;38934;52.690;6.184;2023-12-28T11:49:39;16.38;;;4.00;;
53052;SDS011;38934;52.690;6.184;2023-12-28T11:52:06;18.88;;;4.03;;
53052;SDS011;38934;52.690;6.184;2023-12-28T11:54:33;18.58;;;3.45;;
53052;SDS011;38934;52.690;6.184;2023-12-28T11:56:59;18.35;;;3.70;;
53052;SDS011;38934;52.690;6.184;2023-12-28T11:59:24;17.80;;;3.83;;
53052;SDS011;38934;52.690;6.184;2023-12-28T12:01:51;17.10;;;3.40;;
53052;SDS011;38934;52.690;6.184;2023-12-28T12:04:20;19.40;;;4.97;;
53052;SDS011;38934;52.690;6.184;2023-12-28T12:06:47;17.05;;;3.50;;
53052;SDS011;38934;52.690;6.184;2023-12-28T12:09:14;17.92;;;3.67;;
53052;SDS011;38934;52.690;6.184;2023-12-28T12:11:40;20.17;;;4.00;;
53052;SDS011;38934;52.690;6.184;2023-12-28T12:14:07;17.08;;;3.85;;
53052;SDS011;38934;52.690;6.184;2023-12-28T12:16:34;16.42;;;3.63;;
53052;SDS011;38934;52.690;6.184;2023-12-28T12:19:01;15.68;;;3.45;;
53052;SDS011;38934;52.690;6.184;2023-12-28T12:21:27;21.73;;;3.47;;
53052;SDS011;38934;52.690;6.184;2023-12-28T12:23:54;21.90;;;4.15;;
53052;SDS011;38934;52.690;6.184;2023-12-28T12:26:20;22.10;;;4.15;;
53052;SDS011;38934;52.690;6.184;2023-12-28T12:28:46;19.83;;;3.47;;
53052;SDS011;38934;52.690;6.184;2023-12-28T12:31:13;21.52;;;4.03;;
53052;SDS011;38934;52.690;6.184;2023-12-28T12:33:39;19.48;;;4.00;;
53052;SDS011;38934;52.690;6.184;2023-12-28T12:36:06;16.83;;;3.47;;
53052;SDS011;38934;52.690;6.184;2023-12-28T12:38:33;17.10;;;4.07;;
53052;SDS011;38934;52.690;6.184;2023-12-28T12:40:59;18.38;;;3.97;;
53052;SDS011;38934;52.690;6.184;2023-12-28T12:43:25;21.23;;;4.50;;
53052;SDS011;38934;52.690;6.184;2023-12-28T12:45:52;20.55;;;3.63;;
53052;SDS011;38934;52.690;6.184;2023-12-28T12:48:18;22.15;;;3.95;;
53052;SDS011;38934;52.690;6.184;2023-12-28T12:50:44;16.35;;;3.45;;
53052;SDS011;38934;52.690;6.184;2023-12-28T12:53:11;18.33;;;4.20;;
53052;SDS011;38934;52.690;6.184;2023-12-28T12:55:37;19.30;;;3.75;;
53052;SDS011;38934;52.690;6.184;2023-12-28T12:58:11;20.23;;;4.38;;
53052;SDS011;38934;52.690;6.184;2023-12-28T13:00:38;18.85;;;4.65;;
53052;SDS011;38934;52.690;6.184;2023-12-28T13:03:07;19.85;;;4.05;;
53052;SDS011;38934;52.690;6.184;2023-12-28T13:05:35;15.57;;;3.83;;
53052;SDS011;38934;52.690;6.184;2023-12-28T13:08:02;16.15;;;3.53;;
53052;SDS011;38934;52.690;6.184;2023-12-28T13:10:28;20.08;;;3.80;;
53052;SDS011;38934;52.690;6.184;2023-12-28T13:12:54;21.60;;;3.65;;
53052;SDS011;38934;52.690;6.184;2023-12-28T13:15:20;18.27;;;3.60;;
53052;SDS011;38934;52.690;6.184;2023-12-28T13:17:46;22.65;;;4.13;;
53052;SDS011;38934;52.690;6.184;2023-12-28T13:20:12;16.90;;;4.38;;
53052;SDS011;38934;52.690;6.184;2023-12-28T13:22:39;18.90;;;3.75;;
53052;SDS011;38934;52.690;6.184;2023-12-28T13:25:05;21.02;;;4.00;;
53052;SDS011;38934;52.690;6.184;2023-12-28T13:27:31;23.45;;;4.35;;
53052;SDS011;38934;52.690;6.184;2023-12-28T13:29:57;19.42;;;3.95;;
53052;SDS011;38934;52.690;6.184;2023-12-28T13:32:23;21.27;;;3.92;;
53052;SDS011;38934;52.690;6.184;2023-12-28T13:34:49;15.43;;;3.90;;
53052;SDS011;38934;52.690;6.184;2023-12-28T13:37:18;21.00;;;3.97;;
53052;SDS011;38934;52.690;6.184;2023-12-28T13:39:44;20.95;;;4.05;;
53052;SDS011;38934;52.690;6.184;2023-12-28T13:42:12;18.05;;;4.30;;
53052;SDS011;38934;52.690;6.184;2023-12-28T13:44:38;19.73;;;3.90;;
53052;SDS011;38934;52.690;6.184;2023-12-28T13:47:04;14.13;;;3.58;;
53052;SDS011;38934;52.690;6.184;2023-12-28T13:49:33;18.50;;;3.42;;
53052;SDS011;38934;52.690;6.184;2023-12-28T13:51:59;17.95;;;4.07;;
53052;SDS011;38934;52.690;6.184;2023-12-28T13:54:25;14.40;;;3.53;;
53052;SDS011;38934;52.690;6.184;2023-12-28T13:56:52;18.13;;;3.50;;
53052;SDS011;38934;52.690;6.184;2023-12-28T13:59:22;13.65;;;3.67;;
53052;SDS011;38934;52.690;6.184;2023-12-28T14:01:48;16.88;;;4.25;;
53052;SDS011;38934;52.690;6.184;2023-12-28T14:04:14;16.52;;;3.80;;
53052;SDS011;38934;52.690;6.184;2023-12-28T14:06:40;19.75;;;3.72;;
53052;SDS011;38934;52.690;6.184;2023-12-28T14:09:06;16.50;;;3.85;;
53052;SDS011;38934;52.690;6.184;2023-12-28T14:11:33;18.88;;;4.18;;
53052;SDS011;38934;52.690;6.184;2023-12-28T14:13:59;19.73;;;4.18;;
53052;SDS011;38934;52.690;6.184;2023-12-28T14:16:25;17.13;;;3.80;;
53052;SDS011;38934;52.690;6.184;2023-12-28T14:18:51;16.77;;;3.58;;
53052;SDS011;38934;52.690;6.184;2023-12-28T14:21:17;18.98;;;3.92;;
53052;SDS011;38934;52.690;6.184;2023-12-28T14:23:43;18.55;;;4.25;;
53052;SDS011;38934;52.690;6.184;2023-12-28T14:26:13;17.92;;;3.50;;
53052;SDS011;38934;52.690;6.184;2023-12-28T14:28:40;21.05;;;3.55;;
53052;SDS011;38934;52.690;6.184;2023-12-28T14:31:07;21.50;;;3.78;;
53052;SDS011;38934;52.690;6.184;2023-12-28T14:33:33;16.08;;;4.05;;
53052;SDS011;38934;52.690;6.184;2023-12-28T14:36:00;16.60;;;3.40;;